Time;durP1;ratioP1;P1;durP2;ratioP2;P2;SDS_P1;SDS_P2;PMS_P1;PMS_P2;Temp;Humidity;BMP_temperature;BMP_pressure;BME280_temperature;BME280_humidity;BME280_pressure;Samples;Min_cycle;Max_cycle;Signal;HPM_P1;HPM_P2
2023/12/06 00:02:38;;;;;;;0.30;0.30;;;;;;;;;;6307009;28;20008;-77
2023/12/06 00:05:39;;;;;;;0.30;0.30;;;;;;;;;;6292969;28;20071;-77
2023/12/06 00:08:40;;;;;;;0.30;0.30;;;;;;;;;;6293559;28;20033;-77
2023/12/06 00:11:40;;;;;;;0.30;0.30;;;;;;;;;;6292721;28;20012;-77
2023/12/06 00:14:40;;;;;;;0.30;0.30;;;;;;;;;;6292195;28;20024;-74
2023/12/06 00:17:41;;;;;;;0.30;0.30;;;;;;;;;;6291317;28;20143;-77
2023/12/06 00:20:41;;;;;;;0.30;0.30;;;;;;;;;;6267869;28;20052;-74
2023/12/06 00:23:41;;;;;;;0.30;0.30;;;;;;;;;;6294207;28;20078;-74
2023/12/06 00:26:43;;;;;;;0.47;0.47;;;;;;;;;;6291958;28;20107;-74
2023/12/06 00:29:43;;;;;;;0.35;0.35;;;;;;;;;;6281278;28;20029;-74
2023/12/06 00:32:43;;;;;;;0.30;0.30;;;;;;;;;;6292569;28;20126;-75
2023/12/06 00:35:43;;;;;;;0.30;0.30;;;;;;;;;;6291913;28;20053;-75
2023/12/06 00:38:44;;;;;;;0.30;0.30;;;;;;;;;;6292267;28;20016;-75
2023/12/06 00:41:44;;;;;;;0.40;0.40;;;;;;;;;;6306889;28;20028;-75
2023/12/06 00:44:44;;;;;;;0.30;0.30;;;;;;;;;;6292289;28;20028;-75
2023/12/06 00:47:44;;;;;;;0.30;0.30;;;;;;;;;;6260429;28;20166;-75
2023/12/06 00:50:45;;;;;;;0.30;0.30;;;;;;;;;;6291972;28;20501;-75
2023/12/06 00:53:45;;;;;;;0.30;0.30;;;;;;;;;;6292106;28;20455;-75
2023/12/06 00:56:45;;;;;;;0.30;0.30;;;;;;;;;;6290141;28;20047;-75
2023/12/06 00:59:45;;;;;;;0.30;0.30;;;;;;;;;;6291899;28;20037;-75
2023/12/06 01:02:46;;;;;;;0.30;0.30;;;;;;;;;;6291238;28;20024;-76
2023/12/06 01:05:46;;;;;;;0.30;0.30;;;;;;;;;;6291978;28;20082;-76
2023/12/06 01:08:49;;;;;;;0.30;0.30;;;;;;;;;;6290069;28;20107;-75
2023/12/06 01:11:49;;;;;;;0.30;0.30;;;;;;;;;;6292714;28;20502;-75
2023/12/06 01:14:49;;;;;;;0.30;0.30;;;;;;;;;;6291425;28;20024;-75
2023/12/06 01:17:50;;;;;;;0.30;0.30;;;;;;;;;;6291708;28;20513;-76
2023/12/06 01:20:50;;;;;;;0.30;0.30;;;;;;;;;;6290272;28;20534;-76
2023/12/06 01:23:50;;;;;;;0.30;0.30;;;;;;;;;;6291461;28;20095;-75
2023/12/06 01:26:51;;;;;;;0.30;0.30;;;;;;;;;;6290457;28;20019;-76
2023/12/06 01:29:51;;;;;;;0.30;0.30;;;;;;;;;;6292066;28;20017;-75
2023/12/06 01:32:51;;;;;;;0.30;0.30;;;;;;;;;;6291736;28;20073;-76
2023/12/06 01:35:52;;;;;;;0.30;0.30;;;;;;;;;;6292204;28;20494;-76
2023/12/06 01:38:52;;;;;;;0.30;0.30;;;;;;;;;;6293836;28;20410;-76
2023/12/06 01:41:54;;;;;;;0.30;0.30;;;;;;;;;;6297440;28;20021;-74
2023/12/06 01:44:54;;;;;;;0.30;0.30;;;;;;;;;;6299557;28;20048;-74
2023/12/06 01:47:55;;;;;;;0.30;0.30;;;;;;;;;;6299720;28;20032;-74
2023/12/06 01:50:56;;;;;;;0.30;0.30;;;;;;;;;;6277011;28;20029;-74
2023/12/06 01:53:56;;;;;;;0.40;0.40;;;;;;;;;;6292835;28;20024;-76
2023/12/06 01:56:56;;;;;;;0.30;0.30;;;;;;;;;;6305551;28;20032;-76
2023/12/06 01:59:58;;;;;;;0.30;0.30;;;;;;;;;;6300109;28;20013;-76
2023/12/06 02:02:58;;;;;;;0.30;0.30;;;;;;;;;;6280906;28;20111;-74
2023/12/06 02:06:00;;;;;;;0.30;0.30;;;;;;;;;;6300346;28;20020;-74
2023/12/06 02:09:01;;;;;;;0.40;0.40;;;;;;;;;;6298951;28;20463;-74
2023/12/06 02:12:02;;;;;;;0.30;0.30;;;;;;;;;;6299817;28;20020;-76
2023/12/06 02:15:02;;;;;;;0.37;0.37;;;;;;;;;;6299488;28;20036;-76
2023/12/06 02:18:03;;;;;;;0.30;0.30;;;;;;;;;;6299354;28;20107;-76
2023/12/06 02:21:04;;;;;;;0.30;0.30;;;;;;;;;;6283994;28;20133;-76
2023/12/06 02:24:04;;;;;;;0.30;0.30;;;;;;;;;;6289193;28;20023;-74
2023/12/06 02:27:05;;;;;;;0.30;0.30;;;;;;;;;;6298454;28;20395;-74
2023/12/06 02:30:05;;;;;;;0.30;0.30;;;;;;;;;;6313729;28;20016;-74
2023/12/06 02:33:05;;;;;;;0.30;0.30;;;;;;;;;;6299835;28;20103;-74
2023/12/06 02:36:07;;;;;;;0.30;0.30;;;;;;;;;;6314191;28;20021;-74
2023/12/06 02:39:09;;;;;;;0.30;0.30;;;;;;;;;;6299376;28;20044;-74
2023/12/06 02:42:09;;;;;;;0.30;0.30;;;;;;;;;;6301685;28;20022;-74
2023/12/06 02:45:09;;;;;;;0.30;0.30;;;;;;;;;;6293898;28;20032;-74
2023/12/06 02:48:10;;;;;;;0.30;0.30;;;;;;;;;;6308040;28;20061;-76
2023/12/06 02:51:10;;;;;;;0.30;0.30;;;;;;;;;;6294533;28;20051;-76
2023/12/06 02:54:10;;;;;;;0.30;0.30;;;;;;;;;;6294922;28;20071;-79
2023/12/06 02:57:10;;;;;;;0.30;0.30;;;;;;;;;;6295634;28;20475;-78
2023/12/06 03:00:11;;;;;;;0.30;0.30;;;;;;;;;;6304328;28;20028;-79
2023/12/06 03:03:11;;;;;;;0.30;0.30;;;;;;;;;;6293933;28;20062;-78
2023/12/06 03:06:11;;;;;;;0.30;0.30;;;;;;;;;;6301586;28;20043;-78
2023/12/06 03:09:12;;;;;;;0.30;0.30;;;;;;;;;;6283591;28;20024;-78
2023/12/06 03:12:12;;;;;;;0.30;0.30;;;;;;;;;;6294604;28;20483;-79
2023/12/06 03:15:12;;;;;;;0.30;0.30;;;;;;;;;;6275823;28;20421;-78
2023/12/06 03:18:13;;;;;;;0.30;0.30;;;;;;;;;;6294588;28;20385;-79
2023/12/06 03:21:13;;;;;;;0.30;0.30;;;;;;;;;;6276687;28;20501;-79
2023/12/06 03:24:13;;;;;;;0.30;0.30;;;;;;;;;;6294565;28;20305;-78
2023/12/06 03:27:13;;;;;;;0.30;0.30;;;;;;;;;;6286710;28;20438;-79
2023/12/06 03:30:14;;;;;;;0.30;0.30;;;;;;;;;;6287648;28;20518;-79
2023/12/06 03:33:14;;;;;;;0.30;0.30;;;;;;;;;;6290043;28;20028;-78
2023/12/06 03:36:14;;;;;;;0.33;0.33;;;;;;;;;;6294116;28;20036;-78
2023/12/06 03:39:16;;;;;;;0.30;0.30;;;;;;;;;;6275712;28;20031;-78
2023/12/06 03:42:16;;;;;;;0.30;0.30;;;;;;;;;;6275858;28;20082;-79
2023/12/06 03:45:17;;;;;;;0.30;0.30;;;;;;;;;;6294095;28;20024;-78
2023/12/06 03:48:17;;;;;;;0.30;0.30;;;;;;;;;;6293915;28;20103;-79
2023/12/06 03:51:18;;;;;;;0.30;0.30;;;;;;;;;;6293391;28;20017;-79
2023/12/06 03:54:18;;;;;;;0.30;0.30;;;;;;;;;;6299511;28;20100;-77
2023/12/06 03:57:18;;;;;;;0.40;0.40;;;;;;;;;;6301404;28;20111;-77
2023/12/06 04:00:19;;;;;;;0.30;0.30;;;;;;;;;;6275605;28;20025;-77
2023/12/06 04:03:19;;;;;;;0.30;0.30;;;;;;;;;;6283573;28;20588;-76
2023/12/06 04:06:19;;;;;;;0.30;0.30;;;;;;;;;;6289409;28;20016;-74
2023/12/06 04:09:21;;;;;;;0.30;0.30;;;;;;;;;;6293490;28;20067;-74
2023/12/06 04:12:21;;;;;;;0.30;0.30;;;;;;;;;;6293040;28;20476;-74
2023/12/06 04:15:21;;;;;;;0.30;0.30;;;;;;;;;;6293863;28;20437;-74
2023/12/06 04:18:22;;;;;;;0.30;0.30;;;;;;;;;;6293004;28;20459;-74
2023/12/06 04:21:22;;;;;;;0.30;0.30;;;;;;;;;;6272010;28;20509;-74
2023/12/06 04:24:22;;;;;;;0.30;0.30;;;;;;;;;;6283951;28;20025;-74
2023/12/06 04:27:22;;;;;;;0.30;0.30;;;;;;;;;;6292666;28;20016;-74
2023/12/06 04:30:23;;;;;;;0.30;0.30;;;;;;;;;;6275172;28;20650;-74
2023/12/06 04:33:23;;;;;;;0.30;0.30;;;;;;;;;;6299022;28;20107;-75
2023/12/06 04:36:23;;;;;;;0.30;0.30;;;;;;;;;;6292307;28;20115;-74
2023/12/06 04:39:23;;;;;;;0.30;0.30;;;;;;;;;;6274135;28;20082;-75
2023/12/06 04:42:24;;;;;;;0.30;0.30;;;;;;;;;;6292292;28;20024;-75
2023/12/06 04:45:24;;;;;;;0.30;0.30;;;;;;;;;;6289650;28;20036;-75
2023/12/06 04:48:24;;;;;;;0.30;0.30;;;;;;;;;;6281440;28;20042;-75
2023/12/06 04:51:24;;;;;;;0.30;0.30;;;;;;;;;;6292146;28;20715;-76
2023/12/06 04:54:25;;;;;;;0.20;0.20;;;;;;;;;;6291776;28;20437;-77
2023/12/06 04:57:25;;;;;;;0.30;0.30;;;;;;;;;;6292592;28;20501;-76
2023/12/06 05:00:26;;;;;;;0.30;0.30;;;;;;;;;;6291777;28;20467;-77
2023/12/06 05:03:26;;;;;;;0.30;0.30;;;;;;;;;;6291865;28;20463;-76
2023/12/06 05:06:27;;;;;;;0.30;0.30;;;;;;;;;;6290706;28;20028;-77
2023/12/06 05:09:28;;;;;;;0.30;0.30;;;;;;;;;;6290848;28;20028;-77
2023/12/06 05:12:28;;;;;;;0.20;0.20;;;;;;;;;;6291820;28;20028;-76
2023/12/06 05:15:28;;;;;;;0.30;0.30;;;;;;;;;;6291327;28;20051;-76
2023/12/06 05:18:28;;;;;;;0.30;0.30;;;;;;;;;;6292016;28;20028;-77
2023/12/06 05:21:29;;;;;;;0.30;0.30;;;;;;;;;;6291535;28;20078;-76
2023/12/06 05:24:29;;;;;;;0.30;0.30;;;;;;;;;;6291886;28;20095;-77
2023/12/06 05:27:29;;;;;;;0.30;0.30;;;;;;;;;;6273799;28;20021;-76
2023/12/06 05:30:29;;;;;;;0.30;0.30;;;;;;;;;;6294639;28;20024;-76
2023/12/06 05:33:30;;;;;;;0.30;0.30;;;;;;;;;;6303000;28;20082;-76
2023/12/06 05:36:30;;;;;;;0.30;0.30;;;;;;;;;;6304143;28;20107;-76
2023/12/06 05:39:31;;;;;;;0.30;0.30;;;;;;;;;;6262188;28;20036;-77
2023/12/06 05:42:31;;;;;;;0.30;0.30;;;;;;;;;;6277997;28;20060;-76
2023/12/06 05:45:31;;;;;;;0.30;0.30;;;;;;;;;;6279303;28;20032;-76
2023/12/06 05:48:32;;;;;;;0.20;0.20;;;;;;;;;;6291447;28;20475;-76
2023/12/06 05:51:32;;;;;;;0.30;0.30;;;;;;;;;;6273872;28;20033;-78
2023/12/06 05:54:32;;;;;;;0.20;0.20;;;;;;;;;;6292376;28;20486;-78
2023/12/06 05:57:33;;;;;;;0.20;0.20;;;;;;;;;;6294235;28;20016;-77
2023/12/06 06:00:33;;;;;;;0.30;0.30;;;;;;;;;;6285783;28;20024;-77
2023/12/06 06:03:34;;;;;;;0.30;0.30;;;;;;;;;;6297198;28;20048;-76
2023/12/06 06:06:34;;;;;;;0.30;0.30;;;;;;;;;;6286726;28;20029;-77
2023/12/06 06:09:35;;;;;;;0.23;0.23;;;;;;;;;;6297108;28;20024;-76
2023/12/06 06:12:35;;;;;;;0.20;0.20;;;;;;;;;;6272672;28;20021;-76
2023/12/06 06:15:36;;;;;;;0.20;0.20;;;;;;;;;;6290039;28;20117;-76
2023/12/06 06:18:36;;;;;;;0.30;0.30;;;;;;;;;;6288835;28;20052;-76
2023/12/06 06:21:36;;;;;;;0.30;0.30;;;;;;;;;;6302509;28;20118;-76
2023/12/06 06:24:36;;;;;;;0.30;0.30;;;;;;;;;;6295488;28;20236;-76
2023/12/06 06:27:36;;;;;;;0.30;0.30;;;;;;;;;;6289810;28;20025;-76
2023/12/06 06:30:37;;;;;;;0.27;0.27;;;;;;;;;;6308304;28;20035;-76
2023/12/06 06:33:37;;;;;;;0.30;0.30;;;;;;;;;;6299581;28;20052;-76
2023/12/06 06:36:37;;;;;;;0.30;0.30;;;;;;;;;;6299722;28;20083;-76
2023/12/06 06:39:38;;;;;;;0.20;0.20;;;;;;;;;;6276967;28;20028;-76
2023/12/06 06:42:38;;;;;;;0.30;0.30;;;;;;;;;;6298793;28;20490;-76
2023/12/06 06:45:42;;;;;;;0.30;0.30;;;;;;;;;;6276755;28;20025;-76
2023/12/06 06:48:43;;;;;;;0.30;0.30;;;;;;;;;;6267360;28;20029;-76
2023/12/06 06:51:43;;;;;;;0.23;0.23;;;;;;;;;;6297361;28;20032;-76
2023/12/06 06:54:43;;;;;;;0.30;0.30;;;;;;;;;;6290658;28;20039;-76
2023/12/06 06:57:43;;;;;;;0.30;0.30;;;;;;;;;;6297499;28;20025;-76
2023/12/06 07:00:44;;;;;;;0.20;0.20;;;;;;;;;;6296608;28;20031;-76
2023/12/06 07:03:44;;;;;;;0.30;0.30;;;;;;;;;;6293555;28;20126;-76
2023/12/06 07:06:44;;;;;;;0.30;0.30;;;;;;;;;;6298742;28;20564;-75
2023/12/06 07:09:44;;;;;;;0.27;0.27;;;;;;;;;;6298820;28;20482;-75
2023/12/06 07:12:45;;;;;;;0.30;0.30;;;;;;;;;;6296327;28;20506;-76
2023/12/06 07:15:46;;;;;;;0.30;0.30;;;;;;;;;;6279881;28;20033;-76
2023/12/06 07:18:46;;;;;;;0.20;0.20;;;;;;;;;;6293972;28;20052;-76
2023/12/06 07:21:46;;;;;;;0.30;0.30;;;;;;;;;;6294018;28;20122;-76
2023/12/06 07:24:46;;;;;;;0.30;0.30;;;;;;;;;;6299289;28;20027;-76
2023/12/06 07:27:47;;;;;;;0.30;0.30;;;;;;;;;;6294403;28;20040;-76
2023/12/06 07:30:47;;;;;;;0.23;0.23;;;;;;;;;;6289521;28;20367;-76
2023/12/06 07:33:50;;;;;;;0.20;0.20;;;;;;;;;;6287430;28;20382;-76
2023/12/06 07:36:51;;;;;;;0.30;0.30;;;;;;;;;;6291208;28;20028;-76
2023/12/06 07:39:51;;;;;;;0.30;0.30;;;;;;;;;;6294206;28;20426;-76
2023/12/06 07:42:51;;;;;;;0.30;0.30;;;;;;;;;;6293269;28;20024;-76
2023/12/06 07:45:51;;;;;;;0.30;0.30;;;;;;;;;;6264045;28;20050;-76
2023/12/06 07:48:52;;;;;;;0.30;0.30;;;;;;;;;;6296317;28;20094;-76
2023/12/06 07:51:52;;;;;;;0.30;0.30;;;;;;;;;;6273215;28;20021;-77
2023/12/06 07:54:52;;;;;;;0.20;0.20;;;;;;;;;;6292863;28;20440;-77
2023/12/06 07:57:53;;;;;;;0.20;0.20;;;;;;;;;;6293908;28;20037;-77
2023/12/06 08:00:53;;;;;;;0.30;0.30;;;;;;;;;;6294196;28;20020;-77
2023/12/06 08:03:54;;;;;;;0.20;0.20;;;;;;;;;;6288610;28;20044;-77
2023/12/06 08:06:54;;;;;;;0.20;0.20;;;;;;;;;;6293136;28;20520;-77
2023/12/06 08:09:54;;;;;;;0.20;0.20;;;;;;;;;;6291624;28;20048;-77
2023/12/06 08:12:55;;;;;;;0.20;0.20;;;;;;;;;;6290507;28;20475;-77
2023/12/06 08:15:55;;;;;;;0.20;0.20;;;;;;;;;;6278509;28;20025;-77
2023/12/06 08:18:56;;;;;;;0.20;0.20;;;;;;;;;;6293384;28;20024;-77
2023/12/06 08:21:56;;;;;;;0.20;0.20;;;;;;;;;;6292735;28;20108;-77
2023/12/06 08:24:59;;;;;;;0.20;0.20;;;;;;;;;;6292249;28;20115;-77
2023/12/06 08:27:59;;;;;;;0.20;0.20;;;;;;;;;;6275619;28;20028;-77
2023/12/06 08:30:59;;;;;;;0.20;0.20;;;;;;;;;;6288040;28;20486;-77
2023/12/06 08:34:00;;;;;;;0.20;0.20;;;;;;;;;;6299577;28;20423;-77
2023/12/06 08:37:01;;;;;;;0.20;0.20;;;;;;;;;;6274891;28;20021;-76
2023/12/06 08:40:02;;;;;;;;;;;;;;;;;;6285625;28;20017;-77
2023/12/06 08:43:03;;;;;;;0.20;0.20;;;;;;;;;;6289190;28;19923;-76
2023/12/06 08:46:03;;;;;;;0.20;0.20;;;;;;;;;;6270342;28;20498;-77
2023/12/06 08:49:04;;;;;;;0.20;0.20;;;;;;;;;;6272443;28;20016;-78
2023/12/06 08:52:05;;;;;;;0.20;0.20;;;;;;;;;;6295759;28;20084;-76
2023/12/06 08:55:06;;;;;;;0.20;0.20;;;;;;;;;;6304417;28;20533;-78
2023/12/06 08:58:06;;;;;;;0.20;0.20;;;;;;;;;;6273920;28;20033;-75
2023/12/06 09:01:06;;;;;;;0.20;0.20;;;;;;;;;;6280708;28;20025;-76
2023/12/06 09:04:08;;;;;;;0.20;0.20;;;;;;;;;;6281557;28;20055;-76
2023/12/06 09:07:09;;;;;;;0.20;0.20;;;;;;;;;;6291075;28;20234;-76
2023/12/06 09:10:09;;;;;;;0.20;0.20;;;;;;;;;;6262957;28;20020;-76
2023/12/06 09:13:10;;;;;;;0.20;0.20;;;;;;;;;;6290421;28;20671;-76
2023/12/06 09:16:10;;;;;;;0.20;0.20;;;;;;;;;;6286578;28;20031;-77
2023/12/06 09:19:10;;;;;;;0.20;0.20;;;;;;;;;;6289134;28;20112;-77
2023/12/06 09:22:11;;;;;;;0.20;0.20;;;;;;;;;;6291290;28;20027;-76
2023/12/06 09:25:11;;;;;;;0.20;0.20;;;;;;;;;;6290657;28;20099;-77
2023/12/06 09:28:11;;;;;;;0.20;0.20;;;;;;;;;;6289701;28;20059;-75
2023/12/06 09:31:11;;;;;;;0.20;0.20;;;;;;;;;;6291461;28;20027;-75
2023/12/06 09:34:12;;;;;;;0.30;0.30;;;;;;;;;;6291428;28;20066;-74
2023/12/06 09:37:14;;;;;;;0.20;0.20;;;;;;;;;;6290934;28;20490;-74
2023/12/06 09:40:15;;;;;;;0.20;0.20;;;;;;;;;;6293721;28;20050;-73
2023/12/06 09:43:17;;;;;;;0.20;0.20;;;;;;;;;;6286706;28;20111;-74
2023/12/06 09:46:18;;;;;;;0.20;0.20;;;;;;;;;;6291257;28;20016;-73
2023/12/06 09:49:18;;;;;;;0.20;0.20;;;;;;;;;;6291575;28;20109;-74
2023/12/06 09:52:19;;;;;;;0.20;0.20;;;;;;;;;;6282606;28;20032;-73
2023/12/06 09:55:23;;;;;;;0.20;0.20;;;;;;;;;;6289557;28;20029;-74
2023/12/06 09:58:24;;;;;;;0.20;0.20;;;;;;;;;;6296749;28;20055;-73
2023/12/06 10:01:24;;;;;;;0.20;0.20;;;;;;;;;;6296644;28;20024;-78
2023/12/06 10:04:25;;;;;;;0.20;0.20;;;;;;;;;;6291218;28;20435;-73
2023/12/06 10:07:31;;;;;;;0.20;0.20;;;;;;;;;;6298875;28;20029;-73
2023/12/06 10:10:32;;;;;;;0.20;0.20;;;;;;;;;;6307029;28;20418;-74
2023/12/06 10:13:32;;;;;;;0.20;0.20;;;;;;;;;;6297333;28;20052;-79
2023/12/06 10:16:35;;;;;;;0.20;0.20;;;;;;;;;;6299236;28;20504;-79
2023/12/06 10:19:35;;;;;;;0.17;0.17;;;;;;;;;;6301767;28;20027;-79
2023/12/06 10:22:36;;;;;;;0.20;0.20;;;;;;;;;;6301029;28;20016;-79
2023/12/06 10:25:37;;;;;;;0.20;0.20;;;;;;;;;;6295435;28;20505;-79
2023/12/06 10:28:37;;;;;;;0.20;0.20;;;;;;;;;;6284284;28;20029;-79
2023/12/06 10:31:38;;;;;;;0.20;0.20;;;;;;;;;;6292188;28;20044;-79
2023/12/06 10:34:39;;;;;;;0.20;0.20;;;;;;;;;;6295459;28;20043;-79
2023/12/06 10:37:40;;;;;;;0.20;0.20;;;;;;;;;;6291779;28;20380;-79
2023/12/06 10:40:41;;;;;;;0.20;0.20;;;;;;;;;;6284098;28;20016;-79
2023/12/06 10:43:41;;;;;;;0.17;0.17;;;;;;;;;;6292943;28;20024;-78
2023/12/06 10:46:43;;;;;;;0.20;0.20;;;;;;;;;;6293850;28;20009;-78
2023/12/06 10:49:45;;;;;;;0.20;0.20;;;;;;;;;;6300600;28;20020;-78
2023/12/06 10:52:47;;;;;;;0.20;0.20;;;;;;;;;;6286114;28;20013;-78
2023/12/06 10:55:47;;;;;;;0.20;0.20;;;;;;;;;;6283393;28;20024;-79
2023/12/06 10:58:48;;;;;;;0.20;0.20;;;;;;;;;;6290365;28;20513;-79
2023/12/06 11:01:49;;;;;;;0.17;0.17;;;;;;;;;;6293677;28;20562;-79
2023/12/06 11:04:52;;;;;;;0.20;0.20;;;;;;;;;;6291778;28;20063;-79
2023/12/06 11:08:11;;;;;;;0.20;0.20;;;;;;;;;;6293538;28;20021;-79
2023/12/06 11:11:30;;;;;;;0.20;0.20;;;;;;;;;;6287593;28;20017;-79
2023/12/06 11:14:49;;;;;;;0.20;0.20;;;;;;;;;;6289127;28;20102;-73
2023/12/06 11:18:02;;;;;;;0.20;0.20;;;;;;;;;;6293267;28;20074;-73
2023/12/06 11:21:04;;;;;;;0.20;0.20;;;;;;;;;;6299577;28;20111;-73
2023/12/06 11:24:04;;;;;;;;;;;;;;;;;;6296148;28;20735;-72
2023/12/06 11:27:05;;;;;;;0.20;0.20;;;;;;;;;;6287584;28;20168;-72
2023/12/06 11:30:09;;;;;;;0.20;0.20;;;;;;;;;;6293702;28;20036;-73
2023/12/06 11:33:10;;;;;;;0.20;0.20;;;;;;;;;;6274261;28;20036;-73
2023/12/06 11:36:15;;;;;;;0.20;0.20;;;;;;;;;;6281102;28;20020;-72
2023/12/06 11:39:21;;;;;;;0.20;0.20;;;;;;;;;;6275361;28;20024;-73
2023/12/06 11:42:22;;;;;;;0.20;0.20;;;;;;;;;;6292695;28;20051;-81
2023/12/06 11:45:26;;;;;;;0.20;0.20;;;;;;;;;;6281173;28;20437;-80
2023/12/06 11:48:26;;;;;;;0.20;0.20;;;;;;;;;;6294295;28;20070;-80
2023/12/06 11:51:29;;;;;;;0.20;0.20;;;;;;;;;;6294876;28;20025;-78
2023/12/06 11:54:32;;;;;;;0.20;0.20;;;;;;;;;;6292927;28;20564;-79
2023/12/06 11:57:32;;;;;;;0.20;0.20;;;;;;;;;;6280834;28;20070;-79
2023/12/06 12:00:34;;;;;;;0.20;0.20;;;;;;;;;;6304790;28;20016;-80
2023/12/06 12:03:35;;;;;;;0.20;0.20;;;;;;;;;;6285752;28;20063;-80
2023/12/06 12:06:35;;;;;;;0.20;0.20;;;;;;;;;;6289505;28;20406;-80
2023/12/06 12:09:35;;;;;;;0.20;0.20;;;;;;;;;;6278764;28;20028;-80
2023/12/06 12:12:38;;;;;;;0.20;0.20;;;;;;;;;;6291607;28;20082;-80
2023/12/06 12:15:39;;;;;;;0.20;0.20;;;;;;;;;;6290535;28;20032;-80
2023/12/06 12:18:40;;;;;;;0.20;0.20;;;;;;;;;;6284037;28;20024;-81
2023/12/06 12:21:41;;;;;;;0.20;0.20;;;;;;;;;;6288255;28;20028;-81
2023/12/06 12:24:41;;;;;;;0.20;0.20;;;;;;;;;;6290551;28;20025;-81
2023/12/06 12:27:45;;;;;;;0.20;0.20;;;;;;;;;;6296862;28;20036;-80
2023/12/06 12:30:46;;;;;;;0.20;0.20;;;;;;;;;;6290210;28;20103;-81
2023/12/06 12:33:46;;;;;;;0.20;0.20;;;;;;;;;;6300026;28;20553;-81
2023/12/06 12:36:47;;;;;;;0.20;0.20;;;;;;;;;;6304528;28;20857;-81
2023/12/06 12:39:47;;;;;;;0.20;0.20;;;;;;;;;;6296076;28;20034;-81
2023/12/06 12:42:48;;;;;;;0.20;0.20;;;;;;;;;;6282081;28;20028;-82
2023/12/06 12:45:49;;;;;;;0.20;0.20;;;;;;;;;;6292794;28;20100;-82
2023/12/06 12:48:49;;;;;;;0.20;0.20;;;;;;;;;;6286239;28;20032;-82
2023/12/06 12:51:49;;;;;;;0.20;0.20;;;;;;;;;;6299727;28;20391;-74
2023/12/06 12:54:52;;;;;;;0.20;0.20;;;;;;;;;;6275063;28;20394;-74
2023/12/06 12:57:52;;;;;;;0.20;0.20;;;;;;;;;;6291566;28;20474;-74
2023/12/06 13:00:52;;;;;;;0.20;0.20;;;;;;;;;;6261436;28;20070;-74
2023/12/06 13:03:54;;;;;;;0.20;0.20;;;;;;;;;;6285272;28;20044;-74
2023/12/06 13:06:54;;;;;;;0.20;0.20;;;;;;;;;;6271981;28;20033;-74
2023/12/06 13:09:56;;;;;;;0.20;0.20;;;;;;;;;;6290349;28;20047;-74
2023/12/06 13:12:57;;;;;;;0.20;0.20;;;;;;;;;;6297901;28;20028;-74
2023/12/06 13:15:57;;;;;;;0.20;0.20;;;;;;;;;;6298044;28;20055;-74
2023/12/06 13:18:58;;;;;;;0.20;0.20;;;;;;;;;;6296769;28;20024;-74
2023/12/06 13:21:59;;;;;;;0.20;0.20;;;;;;;;;;6287430;28;20028;-74
2023/12/06 13:24:59;;;;;;;0.20;0.20;;;;;;;;;;6279074;28;20020;-74
2023/12/06 13:27:59;;;;;;;0.20;0.20;;;;;;;;;;6294937;28;20494;-74
2023/12/06 13:31:00;;;;;;;0.20;0.20;;;;;;;;;;6288822;28;20024;-74
2023/12/06 13:34:00;;;;;;;0.20;0.20;;;;;;;;;;6303655;28;20028;-74
2023/12/06 13:37:00;;;;;;;0.20;0.20;;;;;;;;;;6303962;28;20025;-74
2023/12/06 13:40:01;;;;;;;0.20;0.20;;;;;;;;;;6308493;28;20099;-74
2023/12/06 13:43:03;;;;;;;0.20;0.20;;;;;;;;;;6293422;28;20015;-85
2023/12/06 13:46:03;;;;;;;0.20;0.20;;;;;;;;;;6300780;28;20389;-86
2023/12/06 13:49:03;;;;;;;0.20;0.20;;;;;;;;;;6304568;28;20020;-86
2023/12/06 13:52:04;;;;;;;0.20;0.20;;;;;;;;;;6301650;28;20444;-74
2023/12/06 13:55:04;;;;;;;0.20;0.20;;;;;;;;;;6310122;28;20028;-74
2023/12/06 13:58:05;;;;;;;0.27;0.27;;;;;;;;;;6295029;28;20538;-74
2023/12/06 14:01:06;;;;;;;0.20;0.20;;;;;;;;;;6290463;28;20099;-74
2023/12/06 14:04:06;;;;;;;0.20;0.20;;;;;;;;;;6301879;28;20058;-73
2023/12/06 14:07:07;;;;;;;0.20;0.20;;;;;;;;;;6291895;28;20036;-74
2023/12/06 14:10:11;;;;;;;0.20;0.20;;;;;;;;;;6301032;28;20028;-74
2023/12/06 14:13:11;;;;;;;0.20;0.20;;;;;;;;;;6293666;28;20028;-73
2023/12/06 14:16:11;;;;;;;0.20;0.20;;;;;;;;;;6296715;28;20017;-73
2023/12/06 14:19:12;;;;;;;0.20;0.20;;;;;;;;;;6283634;28;20029;-73
2023/12/06 14:22:14;;;;;;;0.20;0.20;;;;;;;;;;6286802;28;20023;-73
2023/12/06 14:25:14;;;;;;;0.20;0.20;;;;;;;;;;6289382;28;20032;-73
2023/12/06 14:28:14;;;;;;;0.20;0.20;;;;;;;;;;6287631;28;20475;-73
2023/12/06 14:31:15;;;;;;;0.20;0.20;;;;;;;;;;6288642;28;20036;-73
2023/12/06 14:34:16;;;;;;;0.20;0.20;;;;;;;;;;6287436;28;20055;-73
2023/12/06 14:37:16;;;;;;;0.20;0.20;;;;;;;;;;6289829;28;20433;-74
2023/12/06 14:40:17;;;;;;;0.20;0.20;;;;;;;;;;6272098;28;20025;-74
2023/12/06 14:43:22;;;;;;;0.30;0.30;;;;;;;;;;6285340;28;20051;-74
2023/12/06 14:46:22;;;;;;;0.20;0.20;;;;;;;;;;6288456;28;20028;-74
2023/12/06 14:49:22;;;;;;;0.20;0.20;;;;;;;;;;6289451;28;20066;-74
2023/12/06 14:52:23;;;;;;;0.30;0.30;;;;;;;;;;6280496;28;20515;-74
2023/12/06 14:55:23;;;;;;;0.30;0.30;;;;;;;;;;6298202;28;20024;-74
2023/12/06 14:58:23;;;;;;;0.30;0.30;;;;;;;;;;6306233;28;20497;-74
2023/12/06 15:01:33;;;;;;;0.30;0.30;;;;;;;;;;6280180;28;20106;-87
2023/12/06 15:04:33;;;;;;;0.30;0.30;;;;;;;;;;6293259;28;20052;-87
2023/12/06 15:07:34;;;;;;;0.30;0.30;;;;;;;;;;6292859;28;20020;-87
2023/12/06 15:10:34;;;;;;;0.30;0.30;;;;;;;;;;6277568;28;20024;-87
2023/12/06 15:13:34;;;;;;;0.30;0.30;;;;;;;;;;6279585;28;20584;-76
2023/12/06 15:16:34;;;;;;;0.27;0.27;;;;;;;;;;6286073;28;20119;-76
2023/12/06 15:19:35;;;;;;;0.30;0.30;;;;;;;;;;6298821;28;20154;-75
2023/12/06 15:22:35;;;;;;;0.20;0.20;;;;;;;;;;6300189;28;20032;-74
2023/12/06 15:25:37;;;;;;;0.20;0.20;;;;;;;;;;6295235;28;20026;-74
2023/12/06 15:28:37;;;;;;;0.20;0.20;;;;;;;;;;6292007;28;20035;-74
2023/12/06 15:31:37;;;;;;;0.30;0.30;;;;;;;;;;6284035;28;20025;-75
2023/12/06 15:34:38;;;;;;;0.20;0.20;;;;;;;;;;6287304;28;20039;-75
2023/12/06 15:37:38;;;;;;;0.20;0.20;;;;;;;;;;6294537;28;20028;-75
2023/12/06 15:40:38;;;;;;;0.20;0.20;;;;;;;;;;6293655;28;20016;-75
2023/12/06 15:43:38;;;;;;;0.23;0.23;;;;;;;;;;6293274;28;20016;-75
2023/12/06 15:46:41;;;;;;;0.30;0.30;;;;;;;;;;6291862;28;20036;-75
2023/12/06 15:49:41;;;;;;;0.20;0.20;;;;;;;;;;6293243;28;20434;-76
2023/12/06 15:52:43;;;;;;;0.20;0.20;;;;;;;;;;6300549;28;20340;-76
2023/12/06 15:55:43;;;;;;;0.20;0.20;;;;;;;;;;6299335;28;20020;-76
2023/12/06 15:58:43;;;;;;;0.20;0.20;;;;;;;;;;6294021;28;20102;-76
2023/12/06 16:01:43;;;;;;;0.20;0.20;;;;;;;;;;6293998;28;20394;-76
2023/12/06 16:04:44;;;;;;;0.30;0.30;;;;;;;;;;6280469;28;20044;-76
2023/12/06 16:07:44;;;;;;;0.20;0.20;;;;;;;;;;6293836;28;20058;-76
2023/12/06 16:10:47;;;;;;;0.20;0.20;;;;;;;;;;6273088;28;20032;-76
2023/12/06 16:13:48;;;;;;;0.30;0.30;;;;;;;;;;6293566;28;20032;-84
2023/12/06 16:16:50;;;;;;;0.30;0.30;;;;;;;;;;6280274;28;20391;-84
2023/12/06 16:19:50;;;;;;;0.25;0.25;;;;;;;;;;6293109;28;20387;-85
2023/12/06 16:22:50;;;;;;;0.20;0.20;;;;;;;;;;6294358;28;20028;-84
2023/12/06 16:25:51;;;;;;;0.20;0.20;;;;;;;;;;6293468;28;20508;-85
2023/12/06 16:28:51;;;;;;;0.20;0.20;;;;;;;;;;6293237;28;20040;-85
2023/12/06 16:31:51;;;;;;;0.30;0.30;;;;;;;;;;6293440;28;20032;-85
2023/12/06 16:34:51;;;;;;;0.30;0.30;;;;;;;;;;6268961;28;20196;-84
2023/12/06 16:37:52;;;;;;;0.30;0.30;;;;;;;;;;6293036;28;20555;-86
2023/12/06 16:40:52;;;;;;;0.30;0.30;;;;;;;;;;6307070;28;20036;-85
2023/12/06 16:43:52;;;;;;;0.20;0.20;;;;;;;;;;6293105;28;20017;-85
2023/12/06 16:46:53;;;;;;;0.20;0.20;;;;;;;;;;6292050;28;20033;-85
2023/12/06 16:49:53;;;;;;;0.30;0.30;;;;;;;;;;6293388;28;20479;-86
2023/12/06 16:52:54;;;;;;;0.30;0.30;;;;;;;;;;6282360;28;20266;-85
2023/12/06 16:55:55;;;;;;;0.30;0.30;;;;;;;;;;6298056;28;20025;-85
2023/12/06 16:58:55;;;;;;;0.20;0.20;;;;;;;;;;6291974;28;20054;-86
2023/12/06 17:01:55;;;;;;;0.27;0.27;;;;;;;;;;6280084;28;20253;-86
2023/12/06 17:04:56;;;;;;;0.20;0.20;;;;;;;;;;6285537;28;20040;-86
2023/12/06 17:07:56;;;;;;;0.30;0.30;;;;;;;;;;6291056;28;20016;-86
2023/12/06 17:10:56;;;;;;;0.30;0.30;;;;;;;;;;6291473;28;20109;-86
2023/12/06 17:13:56;;;;;;;0.30;0.30;;;;;;;;;;6292881;28;20052;-86
2023/12/06 17:16:57;;;;;;;0.20;0.20;;;;;;;;;;6284845;28;20029;-86
2023/12/06 17:19:58;;;;;;;0.20;0.20;;;;;;;;;;6292044;28;20052;-87
2023/12/06 17:22:58;;;;;;;0.30;0.30;;;;;;;;;;6266099;28;20541;-87
2023/12/06 17:25:58;;;;;;;0.20;0.20;;;;;;;;;;6304214;28;20487;-87
2023/12/06 17:28:58;;;;;;;0.23;0.23;;;;;;;;;;6303211;28;20566;-86
2023/12/06 17:31:59;;;;;;;0.20;0.20;;;;;;;;;;6293506;28;20454;-86
2023/12/06 17:34:59;;;;;;;0.40;0.40;;;;;;;;;;6295405;28;20024;-86
2023/12/06 17:37:59;;;;;;;0.30;0.30;;;;;;;;;;6291600;28;20017;-87
2023/12/06 17:41:00;;;;;;;0.30;0.30;;;;;;;;;;6281078;28;20433;-86
2023/12/06 17:44:00;;;;;;;0.30;0.30;;;;;;;;;;6289918;28;20013;-86
2023/12/06 17:47:00;;;;;;;0.30;0.30;;;;;;;;;;6292880;28;20367;-87
2023/12/06 17:50:01;;;;;;;0.20;0.20;;;;;;;;;;6286841;28;20027;-87
2023/12/06 17:53:01;;;;;;;0.30;0.30;;;;;;;;;;6301747;28;20051;-88
2023/12/06 17:56:03;;;;;;;0.30;0.30;;;;;;;;;;6292764;28;20016;-87
2023/12/06 17:59:03;;;;;;;0.30;0.30;;;;;;;;;;6308609;28;20027;-88
2023/12/06 18:02:03;;;;;;;0.30;0.30;;;;;;;;;;6307178;28;20009;-88
2023/12/06 18:05:04;;;;;;;0.30;0.30;;;;;;;;;;6288127;28;20120;-88